createdAt,value
2023-03-13T00:01:59.361Z,7.72
2023-03-13T00:04:26.524Z,4.95
2023-03-13T00:06:53.641Z,5.35
2023-03-13T00:09:20.808Z,5.10
2023-03-13T00:11:47.888Z,8.15
2023-03-13T00:14:15.011Z,5.60
2023-03-13T00:16:42.454Z,8.32
2023-03-13T00:19:10.108Z,7.70
2023-03-13T00:21:41.409Z,8.23
2023-03-13T00:24:10.173Z,7.15
2023-03-13T00:26:37.310Z,5.30
2023-03-13T00:29:04.481Z,7.60
2023-03-13T00:31:32.400Z,4.47
2023-03-13T00:34:01.179Z,4.80
2023-03-13T00:36:33.553Z,8.70
2023-03-13T00:39:01.165Z,4.57
2023-03-13T00:41:32.796Z,6.72
2023-03-13T00:44:02.960Z,4.75
2023-03-13T00:46:30.656Z,4.03
2023-03-13T00:48:58.279Z,5.28
2023-03-13T00:51:27.039Z,4.60
2023-03-13T00:53:54.762Z,5.90
2023-03-13T00:56:21.970Z,3.38
2023-03-13T00:58:50.378Z,4.78
2023-03-13T01:01:22.012Z,5.13
2023-03-13T01:03:50.980Z,6.22
2023-03-13T01:06:19.389Z,4.65
2023-03-13T01:08:46.496Z,4.93
2023-03-13T01:11:23.952Z,5.88
2023-03-13T01:13:54.047Z,6.07
2023-03-13T01:16:21.848Z,8.43
2023-03-13T01:18:50.759Z,6.05
2023-03-13T01:21:19.880Z,6.90
2023-03-13T01:23:48.502Z,5.25
2023-03-13T01:26:16.033Z,7.25
2023-03-13T01:28:43.442Z,9.00
2023-03-13T01:31:24.639Z,5.75
2023-03-13T01:33:55.437Z,9.02
2023-03-13T01:36:22.895Z,7.45
2023-03-13T01:38:50.947Z,6.53
2023-03-13T01:41:18.090Z,5.18
2023-03-13T01:43:45.763Z,6.25
2023-03-13T01:46:25.176Z,6.55
2023-03-13T01:48:58.391Z,5.32
2023-03-13T01:51:25.603Z,5.70
2023-03-13T01:53:56.788Z,6.43
2023-03-13T01:56:27.929Z,6.68
2023-03-13T01:58:56.448Z,7.45
2023-03-13T02:01:24.162Z,5.45
2023-03-13T02:03:51.615Z,9.15
2023-03-13T02:06:18.908Z,5.57
2023-03-13T02:08:50.911Z,6.35
2023-03-13T02:11:24.748Z,7.43
2023-03-13T02:13:52.666Z,6.75
2023-03-13T02:16:20.788Z,5.90
2023-03-13T02:18:48.474Z,8.77
2023-03-13T02:21:19.640Z,5.40
2023-03-13T02:23:54.220Z,5.22
2023-03-13T02:26:21.368Z,5.85
2023-03-13T02:28:48.675Z,6.90
2023-03-13T02:31:15.926Z,6.05
2023-03-13T02:33:44.738Z,6.68
2023-03-13T02:36:13.112Z,6.70
2023-03-13T02:38:43.706Z,5.10
2023-03-13T02:41:10.924Z,4.00
2023-03-13T02:43:38.797Z,7.68
2023-03-13T02:46:07.858Z,6.97
2023-03-13T02:48:40.003Z,6.70
2023-03-13T02:51:10.627Z,9.65
2023-03-13T02:53:37.793Z,7.03
2023-03-13T02:56:05.369Z,8.40
2023-03-13T02:58:49.758Z,8.05
2023-03-13T03:01:17.368Z,6.15
2023-03-13T03:03:44.654Z,6.88
2023-03-13T03:06:11.812Z,6.68
2023-03-13T03:08:41.462Z,8.70
2023-03-13T03:11:08.812Z,6.13
2023-03-13T03:13:36.027Z,9.23
2023-03-13T03:16:07.106Z,5.95
2023-03-13T03:18:34.749Z,7.93
2023-03-13T03:21:02.218Z,8.65
2023-03-13T03:23:29.334Z,12.45
2023-03-13T03:25:56.468Z,8.38
2023-03-13T03:28:23.598Z,7.43
2023-03-13T03:30:54.161Z,8.05
2023-03-13T03:33:24.919Z,7.70
2023-03-13T03:35:52.045Z,6.07
2023-03-13T03:38:19.169Z,8.63
2023-03-13T03:40:46.299Z,8.73
2023-03-13T03:43:13.365Z,8.43
2023-03-13T03:45:40.475Z,9.35
2023-03-13T03:48:07.667Z,8.18
2023-03-13T03:50:34.787Z,11.10
2023-03-13T03:53:01.860Z,9.82
2023-03-13T03:55:29.044Z,11.45
2023-03-13T03:57:56.144Z,13.65
2023-03-13T04:00:23.452Z,13.18
2023-03-13T04:02:50.630Z,14.38
2023-03-13T04:05:17.747Z,14.75
2023-03-13T04:07:44.896Z,14.80
2023-03-13T04:10:12.260Z,18.75
2023-03-13T04:12:39.438Z,17.15
2023-03-13T04:15:06.908Z,15.60
2023-03-13T04:17:34.399Z,13.95
2023-03-13T04:20:01.689Z,15.63
2023-03-13T04:22:28.820Z,16.77
2023-03-13T04:24:55.998Z,17.05
2023-03-13T04:27:23.118Z,14.27
2023-03-13T04:29:50.188Z,16.90
2023-03-13T04:32:17.456Z,14.48
2023-03-13T04:34:44.609Z,14.15
2023-03-13T04:37:11.770Z,13.25
2023-03-13T04:39:38.906Z,13.75
2023-03-13T04:42:06.038Z,12.73
2023-03-13T04:44:33.147Z,10.73
2023-03-13T04:47:00.310Z,9.38
2023-03-13T04:49:27.476Z,9.50
2023-03-13T04:51:54.550Z,10.35
2023-03-13T04:54:21.826Z,10.43
2023-03-13T04:56:49.382Z,8.93
2023-03-13T04:59:16.970Z,7.53
2023-03-13T05:01:44.642Z,10.55
2023-03-13T05:04:12.162Z,8.32
2023-03-13T05:06:39.413Z,10.95
2023-03-13T05:09:06.715Z,10.85
2023-03-13T05:11:34.156Z,10.68
2023-03-13T05:14:01.284Z,7.95
2023-03-13T05:16:28.623Z,8.80
2023-03-13T05:18:55.753Z,11.45
2023-03-13T05:21:22.907Z,8.95
2023-03-13T05:23:50.061Z,9.73
2023-03-13T05:26:17.139Z,8.27
2023-03-13T05:28:44.226Z,8.02
2023-03-13T05:31:11.630Z,8.63
2023-03-13T05:33:38.767Z,9.18
2023-03-13T05:36:05.984Z,10.63
2023-03-13T05:38:33.312Z,9.25
2023-03-13T05:41:00.399Z,10.48
2023-03-13T05:43:27.489Z,12.77
2023-03-13T05:45:54.631Z,12.80
2023-03-13T05:48:21.790Z,8.75
2023-03-13T05:50:48.863Z,10.35
2023-03-13T05:53:16.030Z,9.82
2023-03-13T05:55:43.511Z,11.45
2023-03-13T05:58:10.625Z,10.18
2023-03-13T06:00:37.807Z,13.57
2023-03-13T06:03:04.876Z,9.98
2023-03-13T06:05:31.996Z,12.60
2023-03-13T06:07:59.296Z,8.75
2023-03-13T06:10:26.369Z,11.05
2023-03-13T06:12:54.382Z,10.07
2023-03-13T06:15:21.789Z,9.93
2023-03-13T06:17:48.968Z,8.65
2023-03-13T06:20:16.112Z,9.55
2023-03-13T06:22:43.302Z,9.00
2023-03-13T06:25:10.989Z,10.82
2023-03-13T06:27:38.119Z,9.52
2023-03-13T06:30:05.471Z,9.95
2023-03-13T06:32:32.797Z,9.05
2023-03-13T06:34:59.951Z,10.48
2023-03-13T06:37:27.165Z,11.43
2023-03-13T06:39:54.292Z,9.95
2023-03-13T06:42:21.374Z,9.32
2023-03-13T06:44:48.550Z,10.32
2023-03-13T06:47:15.863Z,9.10
2023-03-13T06:49:43.007Z,16.67
2023-03-13T06:52:10.259Z,9.20
2023-03-13T06:54:37.431Z,7.85
2023-03-13T06:57:04.594Z,13.15
2023-03-13T06:59:31.812Z,17.10
2023-03-13T07:01:59.406Z,9.10
2023-03-13T07:04:26.526Z,9.85
2023-03-13T07:06:53.662Z,12.93
2023-03-13T07:09:20.778Z,10.75
2023-03-13T07:11:47.956Z,9.18
2023-03-13T07:14:17.577Z,9.85
2023-03-13T07:16:45.524Z,8.35
2023-03-13T07:19:12.730Z,10.38
2023-03-13T07:21:39.964Z,8.43
2023-03-13T07:24:07.551Z,7.85
2023-03-13T07:26:34.853Z,13.20
2023-03-13T07:29:02.053Z,11.65
2023-03-13T07:31:33.297Z,15.73
2023-03-13T07:36:28.013Z,9.27
2023-03-13T07:38:55.233Z,8.77
2023-03-13T07:41:22.370Z,8.77
2023-03-13T07:43:49.770Z,9.98
2023-03-13T07:46:21.604Z,9.57
2023-03-13T07:48:49.030Z,8.63
2023-03-13T07:51:17.867Z,11.35
2023-03-13T07:53:47.228Z,7.55
2023-03-13T07:56:15.759Z,9.57
2023-03-13T07:58:43.615Z,8.88
2023-03-13T08:01:15.654Z,9.13
2023-03-13T08:03:43.139Z,8.40
2023-03-13T08:06:11.671Z,8.77
2023-03-13T08:08:39.373Z,10.95
2023-03-13T08:11:07.705Z,9.27
2023-03-13T08:13:35.736Z,10.48
2023-03-13T08:16:04.199Z,12.50
2023-03-13T08:18:34.831Z,13.55
2023-03-13T08:21:09.364Z,12.30
2023-03-13T08:23:36.852Z,14.65
2023-03-13T08:26:11.452Z,15.20
2023-03-13T08:28:38.596Z,11.32
2023-03-13T08:31:12.954Z,9.20
2023-03-13T08:33:40.729Z,7.40
2023-03-13T08:36:11.060Z,9.93
2023-03-13T08:38:38.287Z,9.65
2023-03-13T08:41:05.659Z,9.60
2023-03-13T08:43:32.762Z,10.15
2023-03-13T08:46:00.091Z,9.70
2023-03-13T08:48:27.436Z,7.95
2023-03-13T08:51:27.293Z,9.82
2023-03-13T08:53:55.969Z,10.57
2023-03-13T08:56:24.540Z,10.77
2023-03-13T08:58:53.025Z,14.23
2023-03-13T09:01:20.789Z,9.68
2023-03-13T09:03:48.836Z,12.70
2023-03-13T09:06:16.124Z,9.43
2023-03-13T09:08:43.289Z,10.65
2023-03-13T09:11:17.788Z,13.18
2023-03-13T09:13:46.567Z,10.70
2023-03-13T09:16:14.952Z,10.52
2023-03-13T09:18:42.732Z,12.88
2023-03-13T09:21:10.975Z,19.58
2023-03-13T09:23:38.125Z,12.90
2023-03-13T09:26:05.478Z,12.77
2023-03-13T09:28:32.843Z,12.18
2023-03-13T09:31:16.686Z,11.95
2023-03-13T09:33:44.494Z,13.68
2023-03-13T09:36:12.112Z,11.10
2023-03-13T09:38:39.925Z,9.30
2023-03-13T09:41:16.378Z,9.15
2023-03-13T09:43:55.790Z,12.32
2023-03-13T09:46:25.912Z,9.40
2023-03-13T09:49:04.779Z,8.23
2023-03-13T09:51:36.437Z,9.95
2023-03-13T09:54:23.179Z,11.52
2023-03-13T09:56:56.075Z,12.32
2023-03-13T09:59:29.076Z,8.50
2023-03-13T10:01:57.854Z,8.30
2023-03-13T10:04:30.550Z,8.55
2023-03-13T10:06:57.800Z,10.88
2023-03-13T10:09:29.450Z,8.55
2023-03-13T10:12:03.235Z,10.02
2023-03-13T10:14:31.987Z,9.48
2023-03-13T10:17:01.857Z,9.15
2023-03-13T10:19:32.724Z,10.00
2023-03-13T10:22:02.400Z,16.48
2023-03-13T10:24:32.578Z,10.98
2023-03-13T10:26:59.908Z,10.25
2023-03-13T10:29:28.369Z,8.05
2023-03-13T10:31:55.553Z,7.82
2023-03-13T10:34:22.807Z,8.40
2023-03-13T10:36:50.836Z,8.30
2023-03-13T10:39:19.283Z,9.30
2023-03-13T10:41:47.015Z,9.68
2023-03-13T10:44:22.283Z,9.38
2023-03-13T10:46:50.285Z,7.25
2023-03-13T10:49:21.425Z,11.38
2023-03-13T10:51:49.784Z,9.23
2023-03-13T10:54:17.059Z,7.78
2023-03-13T10:56:44.275Z,9.98
2023-03-13T10:59:24.892Z,8.88
2023-03-13T11:01:52.961Z,9.27
2023-03-13T11:04:29.348Z,8.40
2023-03-13T11:07:01.913Z,8.07
2023-03-13T11:09:29.332Z,7.85
2023-03-13T11:12:02.094Z,8.48
2023-03-13T11:14:29.185Z,7.93
2023-03-13T11:16:59.600Z,9.13
2023-03-13T11:19:30.723Z,9.00
2023-03-13T11:22:02.474Z,8.20
2023-03-13T11:24:33.161Z,8.20
2023-03-13T11:27:04.594Z,9.02
2023-03-13T11:29:48.786Z,10.07
2023-03-13T11:32:21.113Z,7.72
2023-03-13T11:34:52.471Z,11.02
2023-03-13T11:39:54.337Z,8.05
2023-03-13T11:42:33.539Z,8.27
2023-03-13T11:45:19.430Z,8.85
2023-03-13T11:47:49.384Z,7.00
2023-03-13T11:50:55.167Z,7.85
2023-03-13T11:53:45.738Z,7.80
2023-03-13T11:56:17.366Z,8.57
2023-03-13T11:58:47.288Z,9.73
2023-03-13T12:01:19.035Z,8.32
2023-03-13T12:04:05.193Z,4.93
2023-03-13T12:06:47.706Z,7.40
2023-03-13T12:09:24.717Z,9.68
2023-03-13T12:12:04.707Z,8.30
2023-03-13T12:14:37.878Z,10.43
2023-03-13T12:17:08.252Z,7.25
2023-03-13T12:19:43.475Z,8.30
2023-03-13T12:22:30.068Z,7.05
2023-03-13T12:25:12.688Z,8.40
2023-03-13T12:27:46.082Z,11.65
2023-03-13T12:30:25.530Z,8.77
2023-03-13T12:33:11.455Z,6.25
2023-03-13T12:35:39.310Z,10.38
2023-03-13T12:38:06.438Z,13.70
2023-03-13T12:40:33.787Z,14.02
2023-03-13T12:43:19.814Z,11.55
2023-03-13T12:45:59.499Z,9.23
2023-03-13T12:48:39.555Z,9.48
2023-03-13T12:51:15.915Z,9.82
2023-03-13T12:53:51.720Z,9.40
2023-03-13T12:56:21.942Z,15.40
2023-03-13T12:59:09.036Z,12.35
2023-03-13T13:01:48.300Z,12.55
2023-03-13T13:04:16.889Z,10.82
2023-03-13T13:06:52.298Z,7.93
2023-03-13T13:09:33.255Z,7.40
2023-03-13T13:12:05.039Z,8.55
2023-03-13T13:14:32.130Z,7.40
2023-03-13T13:16:59.224Z,8.02
2023-03-13T13:19:26.352Z,9.02
2023-03-13T13:22:12.341Z,7.55
2023-03-13T13:24:41.826Z,6.55
2023-03-13T13:27:28.135Z,8.15
2023-03-13T13:29:56.819Z,8.20
2023-03-13T13:32:31.947Z,7.63
2023-03-13T13:35:02.310Z,8.32
2023-03-13T13:37:29.549Z,8.00
2023-03-13T13:40:16.677Z,6.70
2023-03-13T13:42:56.909Z,12.05
2023-03-13T13:45:31.794Z,9.60
2023-03-13T13:48:16.337Z,6.95
2023-03-13T13:51:02.067Z,5.50
2023-03-13T13:53:42.998Z,7.47
2023-03-13T13:56:28.801Z,9.10
2023-03-13T13:59:00.572Z,10.63
2023-03-13T14:01:27.782Z,10.93
2023-03-13T14:04:08.113Z,7.68
2023-03-13T14:06:36.601Z,10.27
2023-03-13T14:09:13.818Z,11.23
2023-03-13T14:11:41.175Z,8.85
2023-03-13T14:14:21.948Z,8.02
2023-03-13T14:16:59.219Z,9.73
2023-03-13T14:19:26.380Z,8.88
2023-03-13T14:21:58.520Z,10.35
2023-03-13T14:24:25.624Z,11.95
2023-03-13T14:26:52.756Z,8.38
2023-03-13T14:29:25.846Z,7.38
2023-03-13T14:31:57.369Z,8.30
2023-03-13T14:34:24.506Z,11.57
2023-03-13T14:36:57.103Z,9.13
2023-03-13T14:39:31.678Z,12.15
2023-03-13T14:42:11.727Z,10.52
2023-03-13T14:44:40.569Z,10.35
2023-03-13T14:47:17.044Z,7.82
2023-03-13T14:49:46.758Z,7.82
2023-03-13T14:52:27.121Z,10.55
2023-03-13T14:55:02.295Z,9.30
2023-03-13T14:57:29.387Z,9.40
2023-03-13T15:00:16.487Z,13.70
2023-03-13T15:02:43.584Z,9.38
2023-03-13T15:05:30.786Z,9.32
2023-03-13T15:07:57.960Z,6.72
2023-03-13T15:10:26.830Z,7.97
2023-03-13T15:12:54.056Z,9.77
2023-03-13T15:15:21.259Z,8.38
2023-03-13T15:17:48.324Z,8.00
2023-03-13T15:20:16.059Z,8.18
2023-03-13T15:22:44.914Z,7.25
2023-03-13T15:25:22.447Z,7.97
2023-03-13T15:27:50.086Z,10.13
2023-03-13T15:30:18.279Z,8.77
2023-03-13T15:32:47.008Z,9.45
2023-03-13T15:35:20.215Z,8.07
2023-03-13T15:37:47.349Z,9.00
2023-03-13T15:40:15.540Z,10.90
2023-03-13T15:42:42.666Z,9.93
2023-03-13T15:45:10.421Z,11.95
2023-03-13T15:47:37.499Z,9.80
2023-03-13T15:50:04.925Z,9.43
2023-03-13T15:52:32.292Z,11.48
2023-03-13T15:54:59.470Z,8.60
2023-03-13T15:57:27.046Z,7.18
2023-03-13T15:59:54.778Z,8.60
2023-03-13T16:02:23.464Z,8.57
2023-03-13T16:04:51.101Z,8.70
2023-03-13T16:07:20.607Z,13.40
2023-03-13T16:09:47.995Z,8.68
2023-03-13T16:12:15.109Z,12.07
2023-03-13T16:14:42.654Z,13.82
2023-03-13T16:17:19.802Z,10.05
2023-03-13T16:19:48.036Z,8.43
2023-03-13T16:22:15.430Z,10.98
2023-03-13T16:24:42.743Z,9.70
2023-03-13T16:27:17.777Z,8.00
2023-03-13T16:29:45.726Z,9.27
2023-03-13T16:32:15.365Z,10.00
2023-03-13T16:34:43.179Z,8.60
2023-03-13T16:37:12.118Z,9.63
2023-03-13T16:39:39.194Z,9.98
2023-03-13T16:42:06.339Z,8.90
2023-03-13T16:44:33.466Z,12.13
2023-03-13T16:47:05.987Z,7.35
2023-03-13T16:49:33.576Z,9.20
2023-03-13T16:52:00.649Z,8.85
2023-03-13T16:54:27.745Z,9.68
2023-03-13T16:56:54.867Z,9.35
2023-03-13T16:59:23.212Z,10.10
2023-03-13T17:01:50.377Z,10.52
2023-03-13T17:04:17.817Z,7.35
2023-03-13T17:06:44.987Z,8.77
2023-03-13T17:09:16.735Z,10.15
2023-03-13T17:11:44.023Z,9.30
2023-03-13T17:14:11.369Z,8.40
2023-03-13T17:16:45.611Z,8.57
2023-03-13T17:19:16.996Z,7.90
2023-03-13T17:21:44.182Z,11.05
2023-03-13T17:24:11.560Z,11.20
2023-03-13T17:26:39.480Z,9.18
2023-03-13T17:29:07.684Z,9.77
2023-03-13T17:31:38.516Z,8.40
2023-03-13T17:34:06.226Z,7.75
2023-03-13T17:36:33.348Z,8.25
2023-03-13T17:39:01.365Z,10.63
2023-03-13T17:41:29.762Z,8.48
2023-03-13T17:43:56.931Z,8.27
2023-03-13T17:46:44.499Z,8.45
2023-03-13T17:49:13.024Z,8.55
2023-03-13T17:51:41.544Z,7.80
2023-03-13T17:54:09.520Z,9.02
2023-03-13T17:56:40.991Z,9.80
2023-03-13T17:59:12.371Z,8.48
2023-03-13T18:01:39.584Z,8.38
2023-03-13T18:04:06.798Z,11.93
2023-03-13T18:06:38.303Z,10.65
2023-03-13T18:09:08.540Z,9.70
2023-03-13T18:11:36.674Z,10.65
2023-03-13T18:14:04.327Z,11.18
2023-03-13T18:16:40.406Z,11.25
2023-03-13T18:19:36.996Z,9.43
2023-03-13T18:22:04.079Z,10.35
2023-03-13T18:24:31.170Z,9.73
2023-03-13T18:26:58.426Z,8.23
2023-03-13T18:29:26.654Z,8.70
2023-03-13T18:31:55.332Z,11.57
2023-03-13T18:34:24.803Z,9.57
2023-03-13T18:36:52.279Z,9.93
2023-03-13T18:39:20.190Z,12.05
2023-03-13T18:41:47.922Z,10.38
2023-03-13T18:44:16.222Z,12.60
2023-03-13T18:46:44.051Z,9.10
2023-03-13T18:49:20.259Z,10.40
2023-03-13T18:51:48.061Z,11.40
2023-03-13T18:54:15.441Z,11.45
2023-03-13T18:56:44.269Z,11.10
2023-03-13T18:59:16.355Z,9.63
2023-03-13T19:01:43.578Z,9.35
2023-03-13T19:04:10.800Z,11.35
2023-03-13T19:06:37.993Z,9.52
2023-03-13T19:09:37.722Z,10.10
2023-03-13T19:12:00.321Z,11.48
2023-03-13T19:14:27.433Z,13.23
2023-03-13T19:16:56.413Z,12.18
2023-03-13T19:19:24.493Z,9.98
2023-03-13T19:21:52.821Z,15.02
2023-03-13T19:24:22.030Z,10.77
2023-03-13T19:26:50.648Z,9.00
2023-03-13T19:29:18.805Z,12.20
2023-03-13T19:31:46.253Z,11.90
2023-03-13T19:34:13.370Z,9.88
2023-03-13T19:36:44.971Z,11.75
2023-03-13T19:39:16.713Z,12.13
2023-03-13T19:41:44.064Z,12.10
2023-03-13T19:44:11.464Z,10.57
2023-03-13T19:46:43.210Z,8.98
2023-03-13T19:49:21.146Z,13.88
2023-03-13T19:51:48.742Z,11.48
2023-03-13T19:54:16.294Z,12.77
2023-03-13T19:56:44.493Z,12.15
2023-03-13T19:59:15.414Z,13.07
2023-03-13T20:01:42.580Z,12.18
2023-03-13T20:04:10.333Z,10.35
2023-03-13T20:06:38.140Z,10.57
2023-03-13T20:09:06.575Z,12.40
2023-03-13T20:11:33.788Z,10.63
2023-03-13T20:14:01.070Z,11.32
2023-03-13T20:16:30.170Z,12.30
2023-03-13T20:18:58.009Z,10.60
2023-03-13T20:21:28.257Z,10.25
2023-03-13T20:23:55.484Z,13.43
2023-03-13T20:26:22.816Z,14.07
2023-03-13T20:28:52.054Z,12.43
2023-03-13T20:31:20.705Z,10.90
2023-03-13T20:33:47.944Z,12.10
2023-03-13T20:36:16.646Z,11.18
2023-03-13T20:38:43.886Z,11.93
2023-03-13T20:41:11.958Z,11.95
2023-03-13T20:43:39.512Z,9.35
2023-03-13T20:46:07.307Z,11.38
2023-03-13T20:48:42.400Z,12.07
2023-03-13T20:51:09.962Z,12.25
2023-03-13T20:53:37.853Z,13.02
2023-03-13T20:56:07.004Z,11.35
2023-03-13T20:58:34.474Z,15.73
2023-03-13T21:01:01.679Z,13.32
2023-03-13T21:03:29.130Z,13.90
2023-03-13T21:05:56.231Z,10.63
2023-03-13T21:08:23.498Z,11.65
2023-03-13T21:10:50.740Z,11.27
2023-03-13T21:13:17.850Z,10.93
2023-03-13T21:15:44.953Z,11.02
2023-03-13T21:18:12.177Z,10.18
2023-03-13T21:20:39.346Z,10.63
2023-03-13T21:23:06.475Z,11.15
2023-03-13T21:25:33.688Z,10.95
2023-03-13T21:28:00.894Z,11.10
2023-03-13T21:30:28.076Z,10.43
2023-03-13T21:32:55.294Z,11.27
2023-03-13T21:35:22.564Z,9.13
2023-03-13T21:37:49.696Z,11.10
2023-03-13T21:40:16.850Z,10.25
2023-03-13T21:42:43.932Z,11.70
2023-03-13T21:45:11.461Z,11.68
2023-03-13T21:47:38.711Z,10.35
2023-03-13T21:50:07.120Z,9.82
2023-03-13T21:52:40.645Z,9.23
2023-03-13T21:55:09.706Z,10.98
2023-03-13T21:57:36.843Z,9.13
2023-03-13T22:00:06.416Z,12.73
2023-03-13T22:02:33.494Z,8.35
2023-03-13T22:05:02.224Z,9.35
2023-03-13T22:07:31.035Z,10.07
2023-03-13T22:09:58.554Z,11.52
2023-03-13T22:12:25.888Z,9.40
2023-03-13T22:14:54.554Z,8.35
2023-03-13T22:17:23.303Z,11.13
2023-03-13T22:19:50.556Z,10.65
2023-03-13T22:22:20.050Z,8.25
2023-03-13T22:24:47.280Z,7.10
2023-03-13T22:27:15.449Z,9.88
2023-03-13T22:29:42.647Z,9.00
2023-03-13T22:32:09.914Z,10.68
2023-03-13T22:34:37.100Z,9.35
2023-03-13T22:37:04.443Z,10.25
2023-03-13T22:39:31.580Z,8.25
2023-03-13T22:41:58.657Z,8.63
2023-03-13T22:44:25.789Z,8.10
2023-03-13T22:46:52.879Z,8.68
2023-03-13T22:49:20.004Z,12.60
2023-03-13T22:51:47.238Z,12.63
2023-03-13T22:54:14.316Z,9.77
2023-03-13T22:56:41.392Z,10.52
2023-03-13T22:59:08.597Z,11.30
2023-03-13T23:01:35.711Z,14.00
2023-03-13T23:04:02.810Z,9.93
2023-03-13T23:06:29.997Z,8.07
2023-03-13T23:08:57.234Z,8.77
2023-03-13T23:11:24.771Z,10.85
2023-03-13T23:13:51.963Z,9.32
2023-03-13T23:16:19.057Z,9.02
2023-03-13T23:18:46.146Z,8.73
2023-03-13T23:21:14.882Z,8.63
2023-03-13T23:23:42.487Z,9.07
2023-03-13T23:26:11.278Z,7.88
2023-03-13T23:28:39.282Z,9.13
2023-03-13T23:31:14.197Z,10.93
2023-03-13T23:33:41.391Z,7.82
2023-03-13T23:36:09.476Z,7.72
2023-03-13T23:38:36.662Z,12.75
2023-03-13T23:41:11.237Z,7.68
2023-03-13T23:43:38.685Z,8.57
2023-03-13T23:46:06.069Z,8.70
2023-03-13T23:48:33.413Z,11.23
2023-03-13T23:51:05.423Z,10.10
2023-03-13T23:53:35.985Z,9.85
2023-03-13T23:56:03.204Z,7.65
2023-03-13T23:58:30.489Z,7.20
